Time;durP1;ratioP1;P1;durP2;ratioP2;P2;SDS_P1;SDS_P2;PMS_P1;PMS_P2;Temp;Humidity;BMP_temperature;BMP_pressure;BME280_temperature;BME280_humidity;BME280_pressure;Samples;Min_cycle;Max_cycle;Signal;HPM_P1;HPM_P2
2021/06/07 00:02:04;;;;;;;5.47;4.10;;;17.40;75.80;;;;;;5067738;28;20075;-85
2021/06/07 00:04:31;;;;;;;6.88;4.35;;;17.40;75.70;;;;;;5068605;28;20017;-84
2021/06/07 00:06:58;;;;;;;7.05;4.20;;;17.40;75.60;;;;;;5060370;28;20136;-83
2021/06/07 00:09:24;;;;;;;5.15;4.15;;;17.40;75.60;;;;;;5053768;28;20379;-84
2021/06/07 00:11:53;;;;;;;6.07;3.80;;;17.40;75.60;;;;;;5053554;28;20028;-83
2021/06/07 00:14:22;;;;;;;5.63;4.13;;;17.40;75.60;;;;;;5052396;28;20033;-83
2021/06/07 00:16:48;;;;;;;8.65;3.80;;;17.40;75.60;;;;;;5053975;28;20028;-83
2021/06/07 00:19:17;;;;;;;7.45;3.97;;;17.40;75.60;;;;;;5052406;28;20035;-82
2021/06/07 00:21:43;;;;;;;6.25;4.10;;;17.40;75.50;;;;;;5054129;28;20028;-82
2021/06/07 00:24:10;;;;;;;6.32;4.03;;;17.40;75.50;;;;;;5057471;28;20025;-82
2021/06/07 00:26:36;;;;;;;5.35;3.85;;;17.40;75.50;;;;;;5053733;28;20032;-83
2021/06/07 00:29:04;;;;;;;5.03;3.67;;;17.40;75.60;;;;;;5054045;28;20049;-81
2021/06/07 00:31:30;;;;;;;6.25;3.67;;;17.50;75.70;;;;;;5064837;28;20021;-83
2021/06/07 00:33:56;;;;;;;6.13;3.80;;;17.50;75.70;;;;;;5076574;28;20053;-84
2021/06/07 00:36:22;;;;;;;5.40;3.63;;;17.50;75.80;;;;;;5075734;28;20069;-85
2021/06/07 00:38:49;;;;;;;6.22;4.30;;;17.50;75.90;;;;;;5075124;28;20047;-86
2021/06/07 00:41:16;;;;;;;5.10;3.83;;;17.50;76.60;;;;;;5054592;28;20155;-82
2021/06/07 00:43:42;;;;;;;5.70;3.70;;;17.50;77.10;;;;;;5053836;28;20104;-81
2021/06/07 00:46:08;;;;;;;4.65;3.42;;;17.40;77.40;;;;;;5053660;28;20025;-81
2021/06/07 00:48:35;;;;;;;3.90;3.60;;;17.40;77.80;;;;;;5053390;28;20102;-81
2021/06/07 00:51:07;;;;;;;4.15;3.75;;;17.40;78.10;;;;;;5053824;28;20021;-82
2021/06/07 00:53:34;;;;;;;6.88;3.88;;;17.40;78.50;;;;;;5053626;28;20132;-82
2021/06/07 00:56:04;;;;;;;4.75;4.00;;;17.40;79.20;;;;;;5053336;28;20021;-82
2021/06/07 00:58:44;;;;;;;4.45;3.90;;;17.30;78.80;;;;;;5053238;28;20112;-85
2021/06/07 01:01:11;;;;;;;8.80;3.60;;;17.30;78.90;;;;;;5053943;28;20057;-86
2021/06/07 01:03:39;;;;;;;7.55;3.65;;;17.30;79.00;;;;;;5056792;28;20032;-86
2021/06/07 01:06:08;;;;;;;7.13;3.97;;;17.30;79.20;;;;;;5056366;28;20017;-86
2021/06/07 01:08:34;;;;;;;5.40;4.00;;;17.30;80.00;;;;;;5056880;28;20028;-86
2021/06/07 01:11:00;;;;;;;4.88;3.95;;;17.30;79.60;;;;;;5056909;28;20059;-86
2021/06/07 01:13:26;;;;;;;4.75;3.70;;;17.30;79.60;;;;;;5057304;28;20048;-86
2021/06/07 01:15:54;;;;;;;7.13;4.28;;;17.20;79.60;;;;;;5054151;28;20029;-79
2021/06/07 01:18:22;;;;;;;7.70;4.65;;;17.30;79.60;;;;;;5054992;28;20032;-79
2021/06/07 01:20:50;;;;;;;5.90;3.72;;;17.20;79.60;;;;;;5054929;28;20379;-79
2021/06/07 01:23:16;;;;;;;7.75;4.53;;;17.20;79.60;;;;;;5053652;28;20029;-78
2021/06/07 01:25:43;;;;;;;11.20;4.00;;;17.20;79.70;;;;;;5053679;28;20021;-78
2021/06/07 01:28:13;;;;;;;9.43;3.60;;;17.20;79.80;;;;;;5054574;28;20119;-78
2021/06/07 01:30:42;;;;;;;6.82;4.20;;;17.20;79.90;;;;;;5053481;28;20025;-78
2021/06/07 01:33:11;;;;;;;4.82;3.88;;;17.20;80.00;;;;;;5055235;28;20025;-86
2021/06/07 01:35:38;;;;;;;5.45;4.25;;;17.20;80.20;;;;;;5056136;28;20025;-86
2021/06/07 01:38:05;;;;;;;5.65;4.57;;;17.20;80.30;;;;;;5056198;28;20025;-86
2021/06/07 01:40:33;;;;;;;7.97;4.60;;;17.20;80.50;;;;;;5055596;28;20021;-86
2021/06/07 01:42:59;;;;;;;5.78;4.18;;;17.20;80.60;;;;;;5056718;28;20021;-86
2021/06/07 01:45:28;;;;;;;4.97;4.43;;;17.20;80.50;;;;;;5056198;28;20017;-83
2021/06/07 01:47:56;;;;;;;5.45;3.97;;;17.10;80.60;;;;;;5056184;28;20432;-84
2021/06/07 01:50:21;;;;;;;5.50;4.10;;;17.10;80.70;;;;;;5056228;28;20036;-83
2021/06/07 01:52:49;;;;;;;6.70;4.53;;;17.10;80.80;;;;;;5054898;28;20029;-84
2021/06/07 01:55:16;;;;;;;6.28;4.15;;;17.10;81.00;;;;;;5056127;28;20021;-83
2021/06/07 01:57:43;;;;;;;9.77;4.25;;;17.10;81.10;;;;;;5056071;28;20031;-83
2021/06/07 02:00:27;;;;;;;6.30;4.60;;;17.10;81.10;;;;;;5054865;28;20064;-83
2021/06/07 02:02:52;;;;;;;6.30;4.00;;;17.20;81.30;;;;;;5056038;28;20017;-82
2021/06/07 02:05:29;;;;;;;5.50;4.07;;;17.20;81.30;;;;;;5055594;28;20031;-82
2021/06/07 02:07:58;;;;;;;8.05;4.05;;;17.20;81.40;;;;;;5056752;28;20025;-82
2021/06/07 02:10:32;;;;;;;4.47;3.72;;;17.20;81.50;;;;;;5056115;28;20032;-83
2021/06/07 02:12:58;;;;;;;5.65;4.15;;;17.20;81.50;;;;;;5055556;28;20025;-84
2021/06/07 02:15:25;;;;;;;4.35;3.80;;;17.20;81.50;;;;;;5061189;28;20024;-83
2021/06/07 02:17:51;;;;;;;5.28;4.30;;;17.20;81.50;;;;;;5062414;28;20020;-83
2021/06/07 02:20:22;;;;;;;13.40;4.95;;;17.20;81.60;;;;;;5075936;28;20028;-82
2021/06/07 02:22:48;;;;;;;6.63;4.73;;;17.20;81.70;;;;;;5078783;28;20017;-82
2021/06/07 02:25:20;;;;;;;7.82;4.60;;;17.30;81.70;;;;;;5079046;28;20025;-83
2021/06/07 02:27:46;;;;;;;8.52;4.10;;;17.30;81.80;;;;;;5067150;28;20021;-83
2021/06/07 02:30:22;;;;;;;5.85;3.60;;;17.30;81.70;;;;;;5057729;28;20097;-84
2021/06/07 02:32:48;;;;;;;5.72;3.90;;;17.40;81.80;;;;;;5063143;28;20051;-83
2021/06/07 02:35:17;;;;;;;5.32;4.35;;;17.40;81.70;;;;;;5056169;28;20032;-83
2021/06/07 02:37:43;;;;;;;6.43;3.88;;;17.50;81.70;;;;;;5055231;28;20047;-83
2021/06/07 02:40:12;;;;;;;12.55;4.00;;;17.50;81.50;;;;;;5055172;28;20031;-82
2021/06/07 02:42:41;;;;;;;8.88;4.22;;;17.60;81.40;;;;;;5055265;28;20795;-82
2021/06/07 02:45:10;;;;;;;5.70;3.90;;;17.60;81.20;;;;;;5055467;28;20056;-79
2021/06/07 02:47:38;;;;;;;6.47;4.30;;;17.70;81.10;;;;;;5054160;28;20400;-79
2021/06/07 02:50:07;;;;;;;4.82;3.75;;;17.70;80.90;;;;;;5054290;28;20021;-79
2021/06/07 02:52:32;;;;;;;5.40;4.43;;;17.70;80.80;;;;;;5053720;28;20052;-79
2021/06/07 02:54:58;;;;;;;4.95;4.10;;;17.70;80.80;;;;;;5053851;28;20058;-79
2021/06/07 02:57:24;;;;;;;5.72;4.20;;;17.70;81.20;;;;;;5054098;28;20029;-79
2021/06/07 02:59:50;;;;;;;7.13;4.50;;;17.80;80.60;;;;;;5054412;28;20020;-78
2021/06/07 03:02:15;;;;;;;6.85;4.72;;;17.80;80.60;;;;;;5054390;28;20422;-79
2021/06/07 03:04:41;;;;;;;6.20;4.53;;;17.90;80.50;;;;;;5054215;28;20059;-79
2021/06/07 03:07:07;;;;;;;6.93;4.22;;;17.90;80.40;;;;;;5054319;28;20083;-79
2021/06/07 03:09:33;;;;;;;7.80;4.70;;;18.00;80.40;;;;;;5054066;28;20535;-79
2021/06/07 03:12:01;;;;;;;11.02;4.60;;;18.10;80.20;;;;;;5053612;28;20096;-79
2021/06/07 03:14:27;;;;;;;10.48;5.65;;;18.10;80.00;;;;;;5053330;28;20493;-79
2021/06/07 03:16:52;;;;;;;8.05;4.80;;;18.20;79.80;;;;;;5053422;28;20028;-79
2021/06/07 03:19:18;;;;;;;7.93;4.57;;;18.30;79.50;;;;;;5052322;28;20369;-80
2021/06/07 03:21:44;;;;;;;7.00;5.40;;;18.40;79.20;;;;;;5053555;28;20044;-79
2021/06/07 03:24:09;;;;;;;9.38;4.68;;;18.50;78.80;;;;;;5051430;28;20364;-80
2021/06/07 03:26:35;;;;;;;10.98;4.68;;;18.50;78.60;;;;;;5053134;28;20033;-79
2021/06/07 03:29:01;;;;;;;8.52;4.80;;;18.50;78.50;;;;;;5053086;28;20044;-79
2021/06/07 03:31:26;;;;;;;6.13;4.53;;;18.60;78.40;;;;;;5053006;28;20383;-79
2021/06/07 03:33:52;;;;;;;7.70;4.88;;;18.60;78.30;;;;;;5053130;28;20017;-79
2021/06/07 03:36:19;;;;;;;12.55;5.40;;;18.70;78.30;;;;;;5053116;28;20098;-80
2021/06/07 03:38:44;;;;;;;10.13;5.13;;;18.80;78.00;;;;;;5053420;28;20122;-79
2021/06/07 03:41:10;;;;;;;6.82;4.88;;;19.00;77.80;;;;;;5053202;28;20488;-80
2021/06/07 03:43:37;;;;;;;8.65;5.07;;;19.30;77.60;;;;;;5053356;28;20024;-80
2021/06/07 03:46:06;;;;;;;6.53;4.55;;;19.50;77.00;;;;;;5051900;28;20025;-79
2021/06/07 03:48:32;;;;;;;6.00;4.70;;;19.90;76.20;;;;;;5052392;28;20021;-79
2021/06/07 03:50:59;;;;;;;11.27;5.32;;;20.20;75.70;;;;;;5053927;28;20028;-81
2021/06/07 03:53:25;;;;;;;5.97;4.53;;;20.90;75.70;;;;;;5053652;28;20024;-81
2021/06/07 03:55:51;;;;;;;8.07;4.78;;;21.70;73.50;;;;;;5051557;28;20136;-80
2021/06/07 03:58:19;;;;;;;8.65;4.40;;;22.10;71.10;;;;;;5051287;28;20041;-81
2021/06/07 04:00:45;;;;;;;11.25;4.47;;;22.30;69.40;;;;;;5052520;28;20021;-80
2021/06/07 04:03:12;;;;;;;9.65;4.50;;;22.30;68.50;;;;;;5052727;28;20078;-80
2021/06/07 04:05:39;;;;;;;14.77;5.25;;;22.30;68.10;;;;;;5053478;28;20025;-80
2021/06/07 04:08:10;;;;;;;4.60;4.03;;;22.20;67.80;;;;;;5056458;28;20117;-81
2021/06/07 04:10:36;;;;;;;8.20;4.78;;;22.30;67.70;;;;;;5053839;28;20025;-83
2021/06/07 04:13:02;;;;;;;10.27;5.80;;;22.30;67.70;;;;;;5053062;28;20056;-83
2021/06/07 04:15:31;;;;;;;7.97;5.47;;;22.40;67.50;;;;;;5053166;28;20072;-83
2021/06/07 04:17:59;;;;;;;8.70;4.35;;;22.50;67.10;;;;;;5055477;28;20060;-81
2021/06/07 04:20:27;;;;;;;9.52;6.10;;;22.60;66.60;;;;;;5056725;28;20501;-81
2021/06/07 04:22:53;;;;;;;8.65;4.75;;;22.70;66.40;;;;;;5053604;28;20033;-77
2021/06/07 04:25:20;;;;;;;12.52;5.40;;;22.70;66.10;;;;;;5051401;28;20379;-78
2021/06/07 04:27:47;;;;;;;11.25;5.28;;;22.70;65.70;;;;;;5053035;28;20619;-78
2021/06/07 04:30:16;;;;;;;15.05;7.15;;;22.80;65.60;;;;;;5050595;28;20040;-78
2021/06/07 04:32:42;;;;;;;10.60;4.93;;;22.80;65.50;;;;;;5050279;28;20029;-80
2021/06/07 04:35:11;;;;;;;12.55;4.75;;;22.70;65.40;;;;;;5050970;28;20029;-78
2021/06/07 04:37:49;;;;;;;8.75;5.05;;;22.80;65.30;;;;;;5055739;28;20051;-80
2021/06/07 04:40:18;;;;;;;8.95;4.25;;;23.00;65.30;;;;;;5055738;28;20425;-80
2021/06/07 04:42:44;;;;;;;13.35;4.82;;;23.40;65.30;;;;;;5056034;28;20583;-81
2021/06/07 04:45:11;;;;;;;10.93;4.95;;;24.10;64.80;;;;;;5055050;28;20079;-81
2021/06/07 04:47:37;;;;;;;9.73;4.22;;;24.70;63.30;;;;;;5054457;28;20032;-81
2021/06/07 04:50:07;;;;;;;10.70;4.70;;;25.10;61.90;;;;;;5055782;28;20087;-80
2021/06/07 04:52:34;;;;;;;6.80;4.30;;;25.40;61.00;;;;;;5056303;28;20021;-81
2021/06/07 04:55:00;;;;;;;11.40;5.35;;;25.70;60.40;;;;;;5055880;28;20056;-81
2021/06/07 04:57:25;;;;;;;4.72;4.13;;;26.20;60.20;;;;;;5054301;28;20108;-82
2021/06/07 04:59:51;;;;;;;4.80;3.92;;;27.20;59.80;;;;;;5055553;28;20033;-81
2021/06/07 05:02:17;;;;;;;8.05;4.15;;;28.20;57.80;;;;;;5054161;28;20050;-81
2021/06/07 05:04:43;;;;;;;6.78;4.05;;;29.10;56.10;;;;;;5055701;28;20052;-81
2021/06/07 05:07:08;;;;;;;9.27;3.83;;;29.80;54.30;;;;;;5055412;28;20199;-81
2021/06/07 05:09:34;;;;;;;12.38;4.43;;;30.10;52.70;;;;;;5055149;28;20096;-81
2021/06/07 05:12:00;;;;;;;9.82;4.50;;;30.10;51.80;;;;;;5055078;28;20025;-81
2021/06/07 05:14:26;;;;;;;10.20;5.70;;;29.90;51.40;;;;;;5053467;28;20024;-81
2021/06/07 05:16:51;;;;;;;11.77;4.88;;;29.70;51.30;;;;;;5054461;28;20024;-80
2021/06/07 05:19:19;;;;;;;8.55;4.30;;;29.50;51.20;;;;;;5053944;28;20086;-80
2021/06/07 05:21:45;;;;;;;10.07;5.50;;;29.20;51.20;;;;;;5054668;28;20028;-80
2021/06/07 05:24:10;;;;;;;7.88;4.20;;;28.90;51.40;;;;;;5054506;28;20029;-80
2021/06/07 05:26:36;;;;;;;9.45;4.35;;;28.60;51.60;;;;;;5055533;28;20525;-81
2021/06/07 05:29:02;;;;;;;11.65;4.68;;;28.30;52.00;;;;;;5054959;28;20044;-81
2021/06/07 05:31:28;;;;;;;11.75;4.82;;;28.00;52.50;;;;;;5052342;28;20033;-80
2021/06/07 05:33:53;;;;;;;10.73;4.18;;;27.80;52.80;;;;;;5052615;28;20029;-81
2021/06/07 05:36:19;;;;;;;18.20;6.13;;;27.60;53.40;;;;;;5053638;28;20486;-81
2021/06/07 05:38:45;;;;;;;18.17;10.88;;;27.40;53.60;;;;;;5052998;28;20029;-81
2021/06/07 05:41:10;;;;;;;9.77;7.07;;;27.20;53.90;;;;;;5053116;28;20494;-80
2021/06/07 05:43:36;;;;;;;15.18;11.82;;;27.10;54.20;;;;;;5051814;28;20205;-80
2021/06/07 05:46:02;;;;;;;15.45;9.63;;;26.90;54.30;;;;;;5053334;28;20191;-81
2021/06/07 05:48:28;;;;;;;16.83;11.48;;;26.80;54.50;;;;;;5055157;28;20036;-81
2021/06/07 05:50:53;;;;;;;15.07;8.15;;;26.70;54.80;;;;;;5054681;28;20033;-80
2021/06/07 05:53:20;;;;;;;16.30;9.98;;;26.60;55.00;;;;;;5055123;28;20488;-82
2021/06/07 05:55:47;;;;;;;12.68;5.82;;;26.50;55.40;;;;;;5053995;28;20418;-81
2021/06/07 05:58:19;;;;;;;9.35;5.65;;;26.50;55.60;;;;;;5054335;28;20029;-82
2021/06/07 06:00:47;;;;;;;10.93;5.45;;;26.50;55.90;;;;;;5053202;28;20029;-82
2021/06/07 06:03:13;;;;;;;8.27;6.35;;;26.50;56.00;;;;;;5053351;28;20040;-80
2021/06/07 06:05:40;;;;;;;8.05;6.00;;;26.60;56.00;;;;;;5053158;28;20096;-82
2021/06/07 06:08:06;;;;;;;8.65;7.05;;;26.80;56.00;;;;;;5051803;28;20735;-79
2021/06/07 06:10:33;;;;;;;8.13;4.80;;;27.10;55.80;;;;;;5052877;28;20029;-77
2021/06/07 06:12:59;;;;;;;12.93;8.25;;;27.50;55.10;;;;;;5051698;28;20031;-83
2021/06/07 06:15:25;;;;;;;7.38;4.00;;;27.80;54.50;;;;;;5051029;28;20107;-79
2021/06/07 06:17:54;;;;;;;11.30;4.80;;;27.90;53.80;;;;;;5048198;28;20025;-82
2021/06/07 06:20:21;;;;;;;8.75;4.63;;;28.00;53.60;;;;;;5052925;28;20625;-82
2021/06/07 06:22:47;;;;;;;5.43;4.00;;;28.00;53.50;;;;;;5052709;28;20044;-82
2021/06/07 06:25:15;;;;;;;7.90;4.78;;;28.00;54.00;;;;;;5050934;28;20040;-82
2021/06/07 06:27:42;;;;;;;7.88;4.57;;;28.10;53.40;;;;;;5047948;28;119467;-81
2021/06/07 06:30:17;;;;;;;6.57;4.10;;;28.30;53.30;;;;;;5036310;28;20032;-83
2021/06/07 06:32:45;;;;;;;11.57;4.53;;;28.60;52.90;;;;;;5053593;28;20048;-82
2021/06/07 06:35:12;;;;;;;7.88;4.88;;;28.90;52.60;;;;;;5053357;28;20483;-81
2021/06/07 06:37:39;;;;;;;12.95;6.25;;;29.10;52.20;;;;;;5053976;28;20391;-81
2021/06/07 06:40:06;;;;;;;15.70;6.47;;;29.20;52.00;;;;;;5052991;28;20028;-81
2021/06/07 06:42:34;;;;;;;12.07;4.78;;;29.70;52.20;;;;;;5052403;28;20029;-81
2021/06/07 06:45:00;;;;;;;6.05;4.35;;;30.40;51.20;;;;;;5053192;28;20021;-81
2021/06/07 06:47:26;;;;;;;15.52;13.85;;;30.60;50.00;;;;;;5051573;28;20383;-80
2021/06/07 06:49:52;;;;;;;6.13;3.90;;;30.70;49.40;;;;;;5052896;28;20491;-80
2021/06/07 06:52:17;;;;;;;12.90;9.52;;;30.70;49.20;;;;;;5053211;28;20025;-81
2021/06/07 06:54:43;;;;;;;19.15;14.07;;;30.80;48.80;;;;;;5053142;28;20548;-82
2021/06/07 06:57:09;;;;;;;6.45;5.82;;;30.90;48.50;;;;;;5054290;28;20436;-82
2021/06/07 06:59:35;;;;;;;8.70;6.93;;;30.90;48.10;;;;;;5053073;28;20021;-84
2021/06/07 07:02:01;;;;;;;12.95;8.93;;;30.90;47.80;;;;;;5053839;28;20148;-87
2021/06/07 07:04:26;;;;;;;6.53;3.85;;;30.80;48.50;;;;;;5054730;28;20116;-83
2021/06/07 07:06:52;;;;;;;12.60;7.18;;;30.70;47.90;;;;;;5053492;28;20029;-83
2021/06/07 07:09:18;;;;;;;8.07;4.85;;;30.80;48.10;;;;;;5052876;28;20056;-87
2021/06/07 07:11:43;;;;;;;9.77;6.78;;;30.80;48.00;;;;;;5057006;28;20549;-84
2021/06/07 07:14:09;;;;;;;7.10;5.32;;;30.80;48.10;;;;;;5059901;28;20029;-83
2021/06/07 07:16:35;;;;;;;5.93;3.60;;;31.10;48.00;;;;;;5054385;28;20112;-84
2021/06/07 07:19:00;;;;;;;13.55;5.13;;;31.40;47.70;;;;;;5053369;28;20041;-86
2021/06/07 07:21:26;;;;;;;5.82;3.55;;;31.80;47.50;;;;;;5058343;28;20104;-84
2021/06/07 07:23:52;;;;;;;10.18;5.07;;;32.10;46.70;;;;;;5057778;28;20021;-85
2021/06/07 07:26:17;;;;;;;5.28;4.47;;;32.20;46.20;;;;;;5056507;28;20425;-82
2021/06/07 07:28:43;;;;;;;18.20;13.65;;;32.20;46.00;;;;;;5056289;28;20052;-84
2021/06/07 07:31:10;;;;;;;22.00;13.57;;;32.20;46.00;;;;;;5053313;28;20029;-82
2021/06/07 07:33:38;;;;;;;22.77;16.83;;;32.10;46.00;;;;;;5051736;28;20025;-81
2021/06/07 07:36:11;;;;;;;8.48;6.88;;;32.10;46.00;;;;;;5052611;28;20471;-84
2021/06/07 07:38:37;;;;;;;11.30;9.50;;;32.00;45.90;;;;;;5052962;28;20040;-83
2021/06/07 07:41:03;;;;;;;14.82;9.52;;;32.00;46.00;;;;;;5053148;28;20025;-84
2021/06/07 07:43:29;;;;;;;7.57;6.80;;;32.10;46.10;;;;;;5053116;28;20090;-83
2021/06/07 07:45:55;;;;;;;6.13;5.00;;;32.40;46.20;;;;;;5052484;28;20024;-83
2021/06/07 07:48:21;;;;;;;7.72;4.75;;;32.90;45.80;;;;;;5051500;28;20148;-81
2021/06/07 07:50:47;;;;;;;6.72;4.53;;;33.10;45.20;;;;;;5053376;28;20075;-82
2021/06/07 07:53:14;;;;;;;7.15;4.53;;;33.20;44.80;;;;;;5053498;28;20324;-82
2021/06/07 07:55:40;;;;;;;5.32;4.32;;;33.10;44.50;;;;;;5053360;28;20059;-84
2021/06/07 07:58:10;;;;;;;9.27;4.50;;;33.20;44.60;;;;;;5057213;28;20021;-83
2021/06/07 08:00:36;;;;;;;4.43;3.20;;;33.10;44.30;;;;;;5053408;28;20067;-83
2021/06/07 08:03:03;;;;;;;6.30;3.20;;;33.00;44.00;;;;;;5052793;28;20017;-83
2021/06/07 08:05:29;;;;;;;5.57;3.70;;;32.80;43.80;;;;;;5051679;28;20068;-84
2021/06/07 08:08:00;;;;;;;6.22;4.03;;;32.70;43.90;;;;;;5052208;28;20029;-84
2021/06/07 08:10:27;;;;;;;4.10;3.63;;;32.60;44.10;;;;;;5051941;28;20025;-83
2021/06/07 08:12:53;;;;;;;8.93;5.22;;;32.50;44.20;;;;;;5051053;28;20029;-83
2021/06/07 08:15:19;;;;;;;6.38;4.15;;;32.40;44.30;;;;;;5050429;28;20025;-83
2021/06/07 08:17:45;;;;;;;12.02;4.07;;;32.30;44.50;;;;;;5051737;28;20077;-82
2021/06/07 08:20:14;;;;;;;6.97;3.83;;;32.20;45.00;;;;;;5052165;28;20078;-84
2021/06/07 08:22:41;;;;;;;19.00;14.85;;;32.10;45.30;;;;;;5052511;28;20029;-83
2021/06/07 08:25:07;;;;;;;6.28;5.03;;;32.10;45.50;;;;;;5051776;28;20084;-84
2021/06/07 08:27:34;;;;;;;9.25;5.32;;;32.00;45.80;;;;;;5052338;28;20029;-85
2021/06/07 08:30:00;;;;;;;24.58;14.85;;;31.90;45.80;;;;;;5052971;28;20049;-84
2021/06/07 08:32:25;;;;;;;8.55;3.78;;;31.90;45.90;;;;;;5052576;28;20086;-82
2021/06/07 08:34:51;;;;;;;12.40;8.70;;;32.00;45.60;;;;;;5051505;28;20083;-83
2021/06/07 08:37:17;;;;;;;16.85;10.48;;;32.00;45.40;;;;;;5051578;28;20040;-83
2021/06/07 08:39:43;;;;;;;19.08;8.07;;;32.00;45.50;;;;;;5050467;28;20357;-82
2021/06/07 08:42:10;;;;;;;11.98;7.15;;;32.00;45.10;;;;;;5051331;28;20495;-85
2021/06/07 08:44:38;;;;;;;4.35;3.40;;;32.00;45.40;;;;;;5051461;28;20383;-83
2021/06/07 08:47:04;;;;;;;7.03;4.80;;;32.10;45.30;;;;;;5051537;28;20375;-83
2021/06/07 08:49:30;;;;;;;6.88;6.10;;;32.20;45.40;;;;;;5051536;28;20345;-83
2021/06/07 08:51:56;;;;;;;11.30;5.90;;;32.20;45.60;;;;;;5051807;28;20071;-83
2021/06/07 08:54:22;;;;;;;4.78;3.40;;;32.40;45.70;;;;;;5051307;28;20029;-81
2021/06/07 08:56:47;;;;;;;6.82;4.40;;;32.70;45.30;;;;;;5051109;28;20025;-82
2021/06/07 08:59:14;;;;;;;13.20;8.48;;;32.90;44.70;;;;;;5050227;28;20079;-83
2021/06/07 09:01:42;;;;;;;12.32;8.43;;;33.00;44.70;;;;;;5051638;28;20067;-81
2021/06/07 09:04:20;;;;;;;8.63;7.43;;;33.30;44.60;;;;;;5051983;28;20021;-82
2021/06/07 09:06:48;;;;;;;12.15;10.25;;;33.50;44.30;;;;;;5052927;28;20075;-83
2021/06/07 09:09:16;;;;;;;6.30;4.78;;;33.50;43.90;;;;;;5051468;28;20032;-83
2021/06/07 09:12:04;;;;;;;15.82;9.82;;;33.60;43.70;;;;;;5051485;28;20029;-82
2021/06/07 09:14:47;;;;;;;10.15;3.55;;;33.50;43.60;;;;;;5050879;28;20029;-83
2021/06/07 09:17:21;;;;;;;7.47;4.00;;;33.20;43.50;;;;;;5052244;28;20025;-82
2021/06/07 09:19:49;;;;;;;7.88;5.68;;;32.90;43.70;;;;;;5051018;28;20040;-82
2021/06/07 09:22:23;;;;;;;3.72;3.42;;;32.60;43.80;;;;;;5052525;28;20029;-84
2021/06/07 09:25:02;;;;;;;5.38;3.60;;;32.30;44.20;;;;;;5053743;28;20055;-83
2021/06/07 09:27:28;;;;;;;4.72;4.32;;;32.30;44.30;;;;;;5054165;28;20448;-83
2021/06/07 09:29:54;;;;;;;4.60;3.33;;;32.30;44.60;;;;;;5054328;28;20049;-83
2021/06/07 09:32:21;;;;;;;9.65;4.72;;;32.40;44.60;;;;;;5054530;28;20029;-83
2021/06/07 09:35:02;;;;;;;7.03;5.47;;;32.20;44.30;;;;;;5054571;28;20562;-84
2021/06/07 09:37:28;;;;;;;7.10;3.35;;;32.00;44.60;;;;;;5052906;28;20033;-82
2021/06/07 09:40:19;;;;;;;5.45;3.88;;;31.90;44.50;;;;;;5054133;28;20436;-82
2021/06/07 09:42:56;;;;;;;5.28;3.17;;;31.80;44.40;;;;;;5054219;28;20484;-79
2021/06/07 09:45:44;;;;;;;5.10;2.88;;;31.80;44.40;;;;;;5053304;28;20067;-81
2021/06/07 09:48:15;;;;;;;13.85;3.38;;;31.80;44.40;;;;;;5054511;28;20049;-82
2021/06/07 09:51:02;;;;;;;10.85;5.85;;;31.70;44.40;;;;;;5054246;28;20066;-84
2021/06/07 09:53:52;;;;;;;6.90;2.42;;;31.80;44.50;;;;;;5053108;28;20132;-83
2021/06/07 09:56:20;;;;;;;5.03;3.10;;;31.80;43.70;;;;;;5054234;28;20097;-82
2021/06/07 09:58:47;;;;;;;8.50;3.08;;;31.90;43.30;;;;;;5054493;28;20471;-83
2021/06/07 10:01:19;;;;;;;4.25;2.70;;;31.90;43.10;;;;;;5053391;28;20025;-83
2021/06/07 10:03:51;;;;;;;6.45;3.05;;;31.80;43.20;;;;;;5054332;28;20024;-83
2021/06/07 10:06:26;;;;;;;7.72;2.80;;;31.80;43.20;;;;;;5054004;28;20072;-83
2021/06/07 10:09:01;;;;;;;6.75;3.20;;;31.80;43.40;;;;;;5054305;28;20028;-83
2021/06/07 10:11:32;;;;;;;6.45;2.67;;;32.00;43.50;;;;;;5053902;28;20527;-84
2021/06/07 10:14:11;;;;;;;9.00;3.00;;;32.00;43.30;;;;;;5054045;28;20134;-83
2021/06/07 10:16:46;;;;;;;7.18;2.65;;;32.00;43.00;;;;;;5054110;28;20227;-82
2021/06/07 10:19:18;;;;;;;5.57;3.92;;;32.00;43.10;;;;;;5051960;28;20115;-83
2021/06/07 10:21:45;;;;;;;7.90;3.00;;;31.70;43.00;;;;;;5053684;28;20017;-81
2021/06/07 10:24:14;;;;;;;4.50;2.20;;;31.50;43.50;;;;;;5054758;28;20108;-82
2021/06/07 10:26:42;;;;;;;3.60;2.35;;;31.20;43.00;;;;;;5052910;28;20021;-82
2021/06/07 10:29:08;;;;;;;8.80;2.10;;;31.10;43.30;;;;;;5051968;28;20048;-82
2021/06/07 10:31:39;;;;;;;2.72;2.30;;;31.00;43.40;;;;;;5053651;28;20025;-83
2021/06/07 10:34:07;;;;;;;2.30;2.20;;;30.80;43.80;;;;;;5052521;28;20143;-81
2021/06/07 10:36:41;;;;;;;3.70;2.47;;;30.60;44.30;;;;;;5053277;28;20052;-83
2021/06/07 10:39:14;;;;;;;6.20;3.15;;;30.50;44.90;;;;;;5051714;28;20090;-81
2021/06/07 10:41:41;;;;;;;9.35;2.85;;;30.60;45.50;;;;;;5051666;28;20025;-82
2021/06/07 10:44:08;;;;;;;3.42;2.58;;;30.60;45.60;;;;;;5053184;28;20049;-82
2021/06/07 10:46:41;;;;;;;7.97;2.92;;;30.70;45.50;;;;;;5052963;28;20044;-82
2021/06/07 10:49:46;;;;;;;12.38;3.08;;;30.70;45.10;;;;;;5052845;28;20036;-82
2021/06/07 10:52:25;;;;;;;6.80;2.60;;;30.60;45.10;;;;;;5057770;28;20108;-82
2021/06/07 10:55:00;;;;;;;7.10;2.80;;;30.60;45.20;;;;;;5053301;28;20025;-83
2021/06/07 10:57:26;;;;;;;9.63;3.10;;;30.40;45.30;;;;;;5052286;28;20067;-80
2021/06/07 11:00:08;;;;;;;11.20;3.47;;;30.10;45.70;;;;;;5053678;28;20021;-80
2021/06/07 11:02:37;;;;;;;11.32;3.55;;;29.80;46.40;;;;;;5054123;28;20071;-81
2021/06/07 11:05:12;;;;;;;7.43;3.67;;;29.40;46.90;;;;;;5055549;28;20075;-83
2021/06/07 11:07:43;;;;;;;5.07;2.63;;;29.10;47.40;;;;;;5053313;28;20032;-81
2021/06/07 11:10:11;;;;;;;8.40;2.80;;;28.80;47.10;;;;;;5053337;28;20029;-82
2021/06/07 11:12:38;;;;;;;2.78;2.58;;;28.40;47.50;;;;;;5052585;28;20044;-81
2021/06/07 11:15:14;;;;;;;5.32;3.30;;;28.10;49.20;;;;;;5052526;28;20095;-82
2021/06/07 11:17:42;;;;;;;3.97;3.10;;;27.60;51.10;;;;;;5052239;28;20025;-80
2021/06/07 11:20:08;;;;;;;3.85;3.30;;;27.10;52.90;;;;;;5050212;28;20116;-79
2021/06/07 11:23:32;;;;;;;5.82;3.10;;;26.70;54.30;;;;;;5052048;28;20033;-80
2021/06/07 11:25:59;;;;;;;8.50;4.38;;;26.20;55.90;;;;;;5021091;28;20049;-80
2021/06/07 11:28:36;;;;;;;5.22;2.95;;;25.80;57.00;;;;;;5050533;28;20076;-81
2021/06/07 11:31:05;;;;;;;8.40;3.33;;;25.60;58.00;;;;;;5051765;28;20031;-83
2021/06/07 11:34:00;;;;;;;4.57;3.30;;;25.30;58.60;;;;;;5056833;28;20029;-82
2021/06/07 11:36:46;;;;;;;7.20;4.05;;;25.10;59.70;;;;;;5053286;28;20031;-81
2021/06/07 11:39:21;;;;;;;4.38;3.10;;;25.00;60.20;;;;;;5050784;28;20079;-81
2021/06/07 11:42:05;;;;;;;5.82;3.80;;;24.90;60.50;;;;;;5052114;28;20044;-80
2021/06/07 11:44:43;;;;;;;4.82;2.85;;;24.80;60.60;;;;;;5052037;28;20104;-81
2021/06/07 11:47:32;;;;;;;6.63;2.90;;;24.80;60.90;;;;;;5051237;28;20750;-82
2021/06/07 11:49:58;;;;;;;3.10;2.28;;;24.80;60.70;;;;;;5047810;28;20052;-82
2021/06/07 11:52:33;;;;;;;4.85;3.60;;;24.70;60.00;;;;;;5049944;28;20021;-81
2021/06/07 11:55:00;;;;;;;5.32;2.63;;;24.80;59.80;;;;;;5051711;28;20087;-81
2021/06/07 11:57:27;;;;;;;4.30;2.50;;;24.80;59.40;;;;;;5051262;28;20038;-81
2021/06/07 11:59:58;;;;;;;4.93;3.22;;;24.80;59.20;;;;;;5051613;28;20055;-81
2021/06/07 12:02:26;;;;;;;4.88;2.70;;;24.80;59.50;;;;;;5054625;28;20025;-82
2021/06/07 12:04:53;;;;;;;3.20;2.80;;;24.90;59.20;;;;;;5051454;28;20029;-80
2021/06/07 12:07:19;;;;;;;4.22;2.63;;;25.10;59.00;;;;;;5051107;28;20024;-80
2021/06/07 12:09:52;;;;;;;10.43;2.85;;;25.20;58.70;;;;;;5051113;28;20020;-81
2021/06/07 12:12:18;;;;;;;4.43;2.78;;;25.40;58.30;;;;;;5050889;28;20025;-82
2021/06/07 12:14:46;;;;;;;6.15;2.95;;;25.60;57.90;;;;;;5052189;28;20039;-82
2021/06/07 12:17:19;;;;;;;4.60;2.80;;;25.70;57.70;;;;;;5051580;28;20060;-80
2021/06/07 12:19:58;;;;;;;3.25;2.95;;;25.80;57.40;;;;;;5050364;28;20017;-80
2021/06/07 12:22:46;;;;;;;3.90;2.60;;;25.90;57.50;;;;;;5051285;28;20106;-80
2021/06/07 12:25:28;;;;;;;5.65;2.90;;;26.00;56.90;;;;;;5049354;28;20116;-78
2021/06/07 12:31:03;;;;;;;6.57;3.85;;;26.10;56.50;;;;;;5051214;28;20036;-77
2021/06/07 12:33:36;;;;;;;8.60;5.25;;;26.10;56.10;;;;;;5050790;28;20033;-77
2021/06/07 12:36:05;;;;;;;4.20;3.78;;;26.20;56.00;;;;;;5049366;28;20029;-78
2021/06/07 12:38:31;;;;;;;5.50;4.35;;;26.20;55.70;;;;;;5049399;28;20451;-81
2021/06/07 12:40:58;;;;;;;7.40;4.05;;;26.10;55.90;;;;;;5051175;28;20029;-79
2021/06/07 12:43:27;;;;;;;5.03;4.47;;;26.20;56.00;;;;;;5055545;28;20100;-81
2021/06/07 12:45:55;;;;;;;7.03;4.55;;;26.10;56.10;;;;;;5058913;28;20128;-85
2021/06/07 12:48:29;;;;;;;7.93;4.18;;;26.10;56.30;;;;;;5057496;28;20025;-85
2021/06/07 12:50:56;;;;;;;7.30;4.50;;;26.00;56.50;;;;;;5064095;28;20032;-85
2021/06/07 12:53:24;;;;;;;8.52;5.10;;;25.90;57.00;;;;;;5053488;28;20036;-86
2021/06/07 12:55:52;;;;;;;8.20;4.57;;;25.70;57.50;;;;;;5053538;28;20534;-86